sensor_id;sensor_type;location;lat;lon;timestamp;P1;durP1;ratioP1;P2;durP2;ratioP2
20559;SDS011;10438;51.454;6.718;2022-12-29T00:01:36;1.87;;;0.60;;
20559;SDS011;10438;51.454;6.718;2022-12-29T00:04:02;3.13;;;0.60;;
20559;SDS011;10438;51.454;6.718;2022-12-29T00:06:28;2.03;;;0.70;;
20559;SDS011;10438;51.454;6.718;2022-12-29T00:08:55;1.70;;;0.70;;
20559;SDS011;10438;51.454;6.718;2022-12-29T00:11:21;1.80;;;0.70;;
20559;SDS011;10438;51.454;6.718;2022-12-29T00:13:48;2.57;;;0.60;;
20559;SDS011;10438;51.454;6.718;2022-12-29T00:16:33;1.83;;;0.73;;
20559;SDS011;10438;51.454;6.718;2022-12-29T00:19:00;2.00;;;0.67;;
20559;SDS011;10438;51.454;6.718;2022-12-29T00:21:27;1.13;;;0.60;;
20559;SDS011;10438;51.454;6.718;2022-12-29T00:24:15;1.40;;;0.63;;
20559;SDS011;10438;51.454;6.718;2022-12-29T00:29:47;1.63;;;0.70;;
20559;SDS011;10438;51.454;6.718;2022-12-29T00:32:32;1.50;;;0.50;;
20559;SDS011;10438;51.454;6.718;2022-12-29T00:35:38;1.27;;;0.57;;
20559;SDS011;10438;51.454;6.718;2022-12-29T00:38:09;1.23;;;0.60;;
20559;SDS011;10438;51.454;6.718;2022-12-29T00:40:56;1.97;;;0.50;;
20559;SDS011;10438;51.454;6.718;2022-12-29T00:43:40;3.57;;;0.50;;
20559;SDS011;10438;51.454;6.718;2022-12-29T00:46:23;1.83;;;0.70;;
20559;SDS011;10438;51.454;6.718;2022-12-29T00:48:49;1.97;;;0.43;;
20559;SDS011;10438;51.454;6.718;2022-12-29T00:51:33;2.40;;;0.50;;
20559;SDS011;10438;51.454;6.718;2022-12-29T00:53:59;1.10;;;0.40;;
20559;SDS011;10438;51.454;6.718;2022-12-29T00:56:24;1.43;;;0.60;;
20559;SDS011;10438;51.454;6.718;2022-12-29T00:58:50;2.60;;;0.50;;
20559;SDS011;10438;51.454;6.718;2022-12-29T01:01:15;1.20;;;0.60;;
20559;SDS011;10438;51.454;6.718;2022-12-29T01:03:41;1.70;;;0.53;;
20559;SDS011;10438;51.454;6.718;2022-12-29T01:06:07;1.43;;;0.60;;
20559;SDS011;10438;51.454;6.718;2022-12-29T01:08:34;1.77;;;0.60;;
20559;SDS011;10438;51.454;6.718;2022-12-29T01:11:00;2.93;;;0.70;;
20559;SDS011;10438;51.454;6.718;2022-12-29T01:13:35;1.73;;;0.73;;
20559;SDS011;10438;51.454;6.718;2022-12-29T01:16:03;1.33;;;0.40;;
20559;SDS011;10438;51.454;6.718;2022-12-29T01:18:29;1.03;;;0.47;;
20559;SDS011;10438;51.454;6.718;2022-12-29T01:21:01;1.37;;;0.50;;
20559;SDS011;10438;51.454;6.718;2022-12-29T01:23:28;0.63;;;0.40;;
20559;SDS011;10438;51.454;6.718;2022-12-29T01:25:54;1.40;;;0.70;;
20559;SDS011;10438;51.454;6.718;2022-12-29T01:28:20;1.23;;;0.53;;
20559;SDS011;10438;51.454;6.718;2022-12-29T01:30:46;3.13;;;0.40;;
20559;SDS011;10438;51.454;6.718;2022-12-29T01:33:11;0.63;;;0.30;;
20559;SDS011;10438;51.454;6.718;2022-12-29T01:35:37;1.23;;;0.40;;
20559;SDS011;10438;51.454;6.718;2022-12-29T01:38:02;1.37;;;0.43;;
20559;SDS011;10438;51.454;6.718;2022-12-29T01:40:28;1.10;;;0.47;;
20559;SDS011;10438;51.454;6.718;2022-12-29T01:42:53;1.00;;;0.40;;
20559;SDS011;10438;51.454;6.718;2022-12-29T01:45:19;1.00;;;0.33;;
20559;SDS011;10438;51.454;6.718;2022-12-29T01:47:46;1.87;;;0.30;;
20559;SDS011;10438;51.454;6.718;2022-12-29T01:50:29;1.03;;;0.40;;
20559;SDS011;10438;51.454;6.718;2022-12-29T01:53:04;3.57;;;0.57;;
20559;SDS011;10438;51.454;6.718;2022-12-29T01:55:39;2.53;;;0.50;;
20559;SDS011;10438;51.454;6.718;2022-12-29T01:58:07;2.10;;;0.57;;
20559;SDS011;10438;51.454;6.718;2022-12-29T02:00:35;1.40;;;0.40;;
20559;SDS011;10438;51.454;6.718;2022-12-29T02:03:02;1.87;;;0.57;;
20559;SDS011;10438;51.454;6.718;2022-12-29T02:05:35;1.17;;;0.40;;
20559;SDS011;10438;51.454;6.718;2022-12-29T02:08:07;1.80;;;0.47;;
20559;SDS011;10438;51.454;6.718;2022-12-29T02:10:34;2.30;;;0.47;;
20559;SDS011;10438;51.454;6.718;2022-12-29T02:13:00;2.17;;;0.67;;
20559;SDS011;10438;51.454;6.718;2022-12-29T02:31:58;1.30;;;0.53;;
20559;SDS011;10438;51.454;6.718;2022-12-29T02:34:45;2.40;;;0.50;;
20559;SDS011;10438;51.454;6.718;2022-12-29T02:39:54;2.50;;;0.50;;
20559;SDS011;10438;51.454;6.718;2022-12-29T02:44:59;1.43;;;0.50;;
20559;SDS011;10438;51.454;6.718;2022-12-29T02:47:36;1.97;;;0.50;;
20559;SDS011;10438;51.454;6.718;2022-12-29T02:50:22;1.73;;;0.50;;
20559;SDS011;10438;51.454;6.718;2022-12-29T02:52:58;5.07;;;0.63;;
20559;SDS011;10438;51.454;6.718;2022-12-29T02:55:32;4.27;;;0.60;;
20559;SDS011;10438;51.454;6.718;2022-12-29T03:03:44;2.83;;;0.80;;
20559;SDS011;10438;51.454;6.718;2022-12-29T03:06:34;1.60;;;0.60;;
20559;SDS011;10438;51.454;6.718;2022-12-29T03:09:21;1.93;;;0.60;;
20559;SDS011;10438;51.454;6.718;2022-12-29T03:12:15;3.60;;;0.70;;
20559;SDS011;10438;51.454;6.718;2022-12-29T03:15:28;1.70;;;0.47;;
20559;SDS011;10438;51.454;6.718;2022-12-29T03:21:36;4.13;;;0.60;;
20559;SDS011;10438;51.454;6.718;2022-12-29T03:24:34;3.73;;;0.70;;
20559;SDS011;10438;51.454;6.718;2022-12-29T03:27:04;3.87;;;0.60;;
20559;SDS011;10438;51.454;6.718;2022-12-29T03:29:35;1.47;;;0.57;;
20559;SDS011;10438;51.454;6.718;2022-12-29T03:32:05;7.80;;;0.80;;
20559;SDS011;10438;51.454;6.718;2022-12-29T03:34:33;2.83;;;0.70;;
20559;SDS011;10438;51.454;6.718;2022-12-29T03:37:07;1.83;;;0.50;;
20559;SDS011;10438;51.454;6.718;2022-12-29T03:39:37;3.27;;;0.63;;
20559;SDS011;10438;51.454;6.718;2022-12-29T03:42:04;2.60;;;0.60;;
20559;SDS011;10438;51.454;6.718;2022-12-29T03:44:38;1.10;;;0.43;;
20559;SDS011;10438;51.454;6.718;2022-12-29T03:47:07;2.37;;;0.60;;
20559;SDS011;10438;51.454;6.718;2022-12-29T03:49:34;2.30;;;0.60;;
20559;SDS011;10438;51.454;6.718;2022-12-29T03:52:00;3.10;;;0.50;;
20559;SDS011;10438;51.454;6.718;2022-12-29T03:54:25;4.10;;;0.80;;
20559;SDS011;10438;51.454;6.718;2022-12-29T03:56:51;2.40;;;0.70;;
20559;SDS011;10438;51.454;6.718;2022-12-29T03:59:16;1.47;;;0.53;;
20559;SDS011;10438;51.454;6.718;2022-12-29T04:01:42;2.00;;;0.50;;
20559;SDS011;10438;51.454;6.718;2022-12-29T04:04:08;4.07;;;0.57;;
20559;SDS011;10438;51.454;6.718;2022-12-29T04:06:33;1.83;;;0.60;;
20559;SDS011;10438;51.454;6.718;2022-12-29T04:08:59;2.40;;;0.53;;
20559;SDS011;10438;51.454;6.718;2022-12-29T04:11:25;2.13;;;0.50;;
20559;SDS011;10438;51.454;6.718;2022-12-29T04:13:50;1.47;;;0.43;;
20559;SDS011;10438;51.454;6.718;2022-12-29T04:16:16;2.03;;;0.80;;
20559;SDS011;10438;51.454;6.718;2022-12-29T04:18:41;3.13;;;0.50;;
20559;SDS011;10438;51.454;6.718;2022-12-29T04:21:07;2.00;;;0.60;;
20559;SDS011;10438;51.454;6.718;2022-12-29T04:23:33;3.80;;;0.53;;
20559;SDS011;10438;51.454;6.718;2022-12-29T04:26:00;1.50;;;0.50;;
20559;SDS011;10438;51.454;6.718;2022-12-29T04:28:26;1.57;;;0.50;;
20559;SDS011;10438;51.454;6.718;2022-12-29T04:30:51;1.90;;;0.40;;
20559;SDS011;10438;51.454;6.718;2022-12-29T04:33:17;1.00;;;0.50;;
20559;SDS011;10438;51.454;6.718;2022-12-29T04:35:43;2.43;;;0.40;;
20559;SDS011;10438;51.454;6.718;2022-12-29T04:38:09;2.63;;;0.60;;
20559;SDS011;10438;51.454;6.718;2022-12-29T04:40:35;1.97;;;0.77;;
20559;SDS011;10438;51.454;6.718;2022-12-29T04:43:02;2.73;;;0.50;;
20559;SDS011;10438;51.454;6.718;2022-12-29T04:45:28;1.73;;;0.60;;
20559;SDS011;10438;51.454;6.718;2022-12-29T04:47:53;4.63;;;0.53;;
20559;SDS011;10438;51.454;6.718;2022-12-29T04:50:19;1.83;;;0.43;;
20559;SDS011;10438;51.454;6.718;2022-12-29T04:52:45;1.50;;;0.60;;
20559;SDS011;10438;51.454;6.718;2022-12-29T04:55:10;1.17;;;0.50;;
20559;SDS011;10438;51.454;6.718;2022-12-29T04:57:36;1.27;;;0.50;;
20559;SDS011;10438;51.454;6.718;2022-12-29T05:00:02;2.30;;;0.40;;
20559;SDS011;10438;51.454;6.718;2022-12-29T05:02:29;1.90;;;0.50;;
20559;SDS011;10438;51.454;6.718;2022-12-29T05:04:54;1.57;;;0.60;;
20559;SDS011;10438;51.454;6.718;2022-12-29T05:07:20;1.53;;;0.43;;
20559;SDS011;10438;51.454;6.718;2022-12-29T05:09:45;9.80;;;0.87;;
20559;SDS011;10438;51.454;6.718;2022-12-29T05:12:11;2.43;;;0.50;;
20559;SDS011;10438;51.454;6.718;2022-12-29T05:14:36;2.23;;;0.60;;
20559;SDS011;10438;51.454;6.718;2022-12-29T05:17:02;3.27;;;0.70;;
20559;SDS011;10438;51.454;6.718;2022-12-29T05:19:28;3.70;;;0.57;;
20559;SDS011;10438;51.454;6.718;2022-12-29T05:21:53;1.37;;;0.37;;
20559;SDS011;10438;51.454;6.718;2022-12-29T05:24:19;3.00;;;0.60;;
20559;SDS011;10438;51.454;6.718;2022-12-29T05:26:45;3.67;;;0.60;;
20559;SDS011;10438;51.454;6.718;2022-12-29T05:29:10;3.07;;;0.57;;
20559;SDS011;10438;51.454;6.718;2022-12-29T05:31:36;3.67;;;0.87;;
20559;SDS011;10438;51.454;6.718;2022-12-29T05:34:01;2.83;;;0.60;;
20559;SDS011;10438;51.454;6.718;2022-12-29T05:36:27;4.80;;;0.60;;
20559;SDS011;10438;51.454;6.718;2022-12-29T05:38:53;3.73;;;0.60;;
20559;SDS011;10438;51.454;6.718;2022-12-29T05:41:18;2.47;;;0.53;;
20559;SDS011;10438;51.454;6.718;2022-12-29T05:43:44;3.93;;;0.60;;
20559;SDS011;10438;51.454;6.718;2022-12-29T05:46:10;6.10;;;0.87;;
20559;SDS011;10438;51.454;6.718;2022-12-29T05:48:35;4.60;;;0.70;;
20559;SDS011;10438;51.454;6.718;2022-12-29T05:51:01;3.13;;;0.57;;
20559;SDS011;10438;51.454;6.718;2022-12-29T05:53:26;3.37;;;0.60;;
20559;SDS011;10438;51.454;6.718;2022-12-29T05:55:52;2.73;;;0.60;;
20559;SDS011;10438;51.454;6.718;2022-12-29T05:58:18;3.60;;;0.70;;
20559;SDS011;10438;51.454;6.718;2022-12-29T06:00:43;6.00;;;0.70;;
20559;SDS011;10438;51.454;6.718;2022-12-29T06:03:09;1.97;;;0.67;;
20559;SDS011;10438;51.454;6.718;2022-12-29T06:05:35;3.43;;;0.60;;
20559;SDS011;10438;51.454;6.718;2022-12-29T06:08:01;5.63;;;0.80;;
20559;SDS011;10438;51.454;6.718;2022-12-29T06:10:27;4.53;;;0.80;;
20559;SDS011;10438;51.454;6.718;2022-12-29T06:12:52;3.93;;;0.87;;
20559;SDS011;10438;51.454;6.718;2022-12-29T06:15:18;5.93;;;0.87;;
20559;SDS011;10438;51.454;6.718;2022-12-29T06:17:43;4.00;;;0.50;;
20559;SDS011;10438;51.454;6.718;2022-12-29T06:20:09;3.40;;;0.70;;
20559;SDS011;10438;51.454;6.718;2022-12-29T06:22:35;3.87;;;0.70;;
20559;SDS011;10438;51.454;6.718;2022-12-29T06:25:01;5.13;;;0.80;;
20559;SDS011;10438;51.454;6.718;2022-12-29T06:27:27;3.93;;;1.47;;
20559;SDS011;10438;51.454;6.718;2022-12-29T06:29:53;3.27;;;0.93;;
20559;SDS011;10438;51.454;6.718;2022-12-29T06:32:19;3.03;;;0.77;;
20559;SDS011;10438;51.454;6.718;2022-12-29T06:34:45;7.87;;;0.80;;
20559;SDS011;10438;51.454;6.718;2022-12-29T06:37:10;4.30;;;0.80;;
20559;SDS011;10438;51.454;6.718;2022-12-29T06:39:36;5.13;;;0.70;;
20559;SDS011;10438;51.454;6.718;2022-12-29T06:42:02;3.60;;;0.87;;
20559;SDS011;10438;51.454;6.718;2022-12-29T06:44:28;2.57;;;0.60;;
20559;SDS011;10438;51.454;6.718;2022-12-29T06:46:53;4.30;;;0.70;;
20559;SDS011;10438;51.454;6.718;2022-12-29T06:49:19;4.67;;;0.87;;
20559;SDS011;10438;51.454;6.718;2022-12-29T06:51:45;6.77;;;0.87;;
20559;SDS011;10438;51.454;6.718;2022-12-29T06:54:11;3.43;;;0.80;;
20559;SDS011;10438;51.454;6.718;2022-12-29T06:56:37;7.07;;;1.20;;
20559;SDS011;10438;51.454;6.718;2022-12-29T06:59:02;2.20;;;0.70;;
20559;SDS011;10438;51.454;6.718;2022-12-29T07:01:28;5.50;;;0.87;;
20559;SDS011;10438;51.454;6.718;2022-12-29T07:03:54;3.73;;;0.77;;
20559;SDS011;10438;51.454;6.718;2022-12-29T07:06:20;4.53;;;0.80;;
20559;SDS011;10438;51.454;6.718;2022-12-29T07:08:45;3.47;;;0.70;;
20559;SDS011;10438;51.454;6.718;2022-12-29T07:11:11;3.07;;;0.80;;
20559;SDS011;10438;51.454;6.718;2022-12-29T07:13:36;4.43;;;0.80;;
20559;SDS011;10438;51.454;6.718;2022-12-29T07:16:08;4.10;;;0.63;;
20559;SDS011;10438;51.454;6.718;2022-12-29T07:18:35;5.10;;;0.87;;
20559;SDS011;10438;51.454;6.718;2022-12-29T07:21:01;3.87;;;0.97;;
20559;SDS011;10438;51.454;6.718;2022-12-29T07:23:27;4.07;;;0.90;;
20559;SDS011;10438;51.454;6.718;2022-12-29T07:26:06;7.27;;;1.10;;
20559;SDS011;10438;51.454;6.718;2022-12-29T07:28:34;8.50;;;1.87;;
20559;SDS011;10438;51.454;6.718;2022-12-29T07:31:00;6.03;;;0.80;;
20559;SDS011;10438;51.454;6.718;2022-12-29T07:33:29;4.50;;;0.90;;
20559;SDS011;10438;51.454;6.718;2022-12-29T07:35:56;7.83;;;0.97;;
20559;SDS011;10438;51.454;6.718;2022-12-29T07:38:22;4.87;;;0.70;;
20559;SDS011;10438;51.454;6.718;2022-12-29T07:40:47;9.23;;;1.00;;
20559;SDS011;10438;51.454;6.718;2022-12-29T07:43:13;3.90;;;0.70;;
20559;SDS011;10438;51.454;6.718;2022-12-29T07:45:38;3.17;;;0.60;;
20559;SDS011;10438;51.454;6.718;2022-12-29T07:48:04;7.13;;;1.47;;
20559;SDS011;10438;51.454;6.718;2022-12-29T07:50:32;3.97;;;1.00;;
20559;SDS011;10438;51.454;6.718;2022-12-29T07:52:58;4.20;;;1.00;;
20559;SDS011;10438;51.454;6.718;2022-12-29T07:55:24;5.13;;;1.00;;
20559;SDS011;10438;51.454;6.718;2022-12-29T07:57:49;6.50;;;0.80;;
20559;SDS011;10438;51.454;6.718;2022-12-29T08:00:17;5.00;;;0.97;;
20559;SDS011;10438;51.454;6.718;2022-12-29T08:02:43;5.03;;;1.03;;
20559;SDS011;10438;51.454;6.718;2022-12-29T08:05:08;8.30;;;1.10;;
20559;SDS011;10438;51.454;6.718;2022-12-29T08:07:34;6.57;;;1.30;;
20559;SDS011;10438;51.454;6.718;2022-12-29T08:09:59;6.47;;;0.90;;
20559;SDS011;10438;51.454;6.718;2022-12-29T08:12:26;7.90;;;1.20;;
20559;SDS011;10438;51.454;6.718;2022-12-29T08:14:51;5.57;;;1.23;;
20559;SDS011;10438;51.454;6.718;2022-12-29T08:17:17;6.33;;;1.00;;
20559;SDS011;10438;51.454;6.718;2022-12-29T08:19:42;8.10;;;2.07;;
20559;SDS011;10438;51.454;6.718;2022-12-29T08:22:08;8.63;;;1.40;;
20559;SDS011;10438;51.454;6.718;2022-12-29T08:24:34;11.50;;;1.17;;
20559;SDS011;10438;51.454;6.718;2022-12-29T08:27:00;8.27;;;1.30;;
20559;SDS011;10438;51.454;6.718;2022-12-29T08:29:26;6.13;;;0.97;;
20559;SDS011;10438;51.454;6.718;2022-12-29T08:31:53;4.47;;;1.10;;
20559;SDS011;10438;51.454;6.718;2022-12-29T08:34:19;5.77;;;0.90;;
20559;SDS011;10438;51.454;6.718;2022-12-29T08:36:44;7.20;;;1.10;;
20559;SDS011;10438;51.454;6.718;2022-12-29T08:39:10;15.00;;;1.40;;
20559;SDS011;10438;51.454;6.718;2022-12-29T08:41:35;9.53;;;1.20;;
20559;SDS011;10438;51.454;6.718;2022-12-29T08:44:01;3.63;;;1.10;;
20559;SDS011;10438;51.454;6.718;2022-12-29T08:46:26;9.80;;;1.20;;
20559;SDS011;10438;51.454;6.718;2022-12-29T08:48:52;5.80;;;0.93;;
20559;SDS011;10438;51.454;6.718;2022-12-29T08:51:18;6.40;;;1.63;;
20559;SDS011;10438;51.454;6.718;2022-12-29T08:53:44;7.60;;;1.13;;
20559;SDS011;10438;51.454;6.718;2022-12-29T08:56:09;6.90;;;1.20;;
20559;SDS011;10438;51.454;6.718;2022-12-29T08:58:36;6.00;;;0.90;;
20559;SDS011;10438;51.454;6.718;2022-12-29T09:01:02;9.63;;;1.50;;
20559;SDS011;10438;51.454;6.718;2022-12-29T09:03:27;6.93;;;1.40;;
20559;SDS011;10438;51.454;6.718;2022-12-29T09:05:54;6.40;;;1.07;;
20559;SDS011;10438;51.454;6.718;2022-12-29T09:08:21;3.90;;;0.90;;
20559;SDS011;10438;51.454;6.718;2022-12-29T09:10:47;8.57;;;1.20;;
20559;SDS011;10438;51.454;6.718;2022-12-29T09:13:13;10.40;;;1.80;;
20559;SDS011;10438;51.454;6.718;2022-12-29T09:15:39;7.40;;;1.10;;
20559;SDS011;10438;51.454;6.718;2022-12-29T09:18:06;6.37;;;1.23;;
20559;SDS011;10438;51.454;6.718;2022-12-29T09:20:33;6.40;;;1.20;;
20559;SDS011;10438;51.454;6.718;2022-12-29T09:22:58;6.40;;;1.53;;
20559;SDS011;10438;51.454;6.718;2022-12-29T09:25:24;6.60;;;1.63;;
20559;SDS011;10438;51.454;6.718;2022-12-29T09:27:50;9.63;;;1.53;;
20559;SDS011;10438;51.454;6.718;2022-12-29T09:30:18;7.27;;;1.10;;
20559;SDS011;10438;51.454;6.718;2022-12-29T09:32:45;12.97;;;1.30;;
20559;SDS011;10438;51.454;6.718;2022-12-29T09:35:12;9.80;;;1.13;;
20559;SDS011;10438;51.454;6.718;2022-12-29T09:37:38;9.07;;;1.53;;
20559;SDS011;10438;51.454;6.718;2022-12-29T09:40:04;6.50;;;1.27;;
20559;SDS011;10438;51.454;6.718;2022-12-29T09:45:36;9.03;;;1.40;;
20559;SDS011;10438;51.454;6.718;2022-12-29T09:48:33;12.93;;;1.23;;
20559;SDS011;10438;51.454;6.718;2022-12-29T09:51:06;5.00;;;0.93;;
20559;SDS011;10438;51.454;6.718;2022-12-29T09:53:38;8.10;;;2.03;;
20559;SDS011;10438;51.454;6.718;2022-12-29T09:56:13;9.57;;;1.20;;
20559;SDS011;10438;51.454;6.718;2022-12-29T09:58:42;6.27;;;1.40;;
20559;SDS011;10438;51.454;6.718;2022-12-29T10:01:36;8.10;;;1.50;;
20559;SDS011;10438;51.454;6.718;2022-12-29T10:04:07;8.93;;;1.40;;
20559;SDS011;10438;51.454;6.718;2022-12-29T10:06:42;9.60;;;1.30;;
20559;SDS011;10438;51.454;6.718;2022-12-29T10:09:20;5.93;;;1.33;;
20559;SDS011;10438;51.454;6.718;2022-12-29T10:25:23;5.47;;;0.77;;
20559;SDS011;10438;51.454;6.718;2022-12-29T10:27:51;6.30;;;1.63;;
20559;SDS011;10438;51.454;6.718;2022-12-29T10:30:20;11.80;;;1.47;;
20559;SDS011;10438;51.454;6.718;2022-12-29T10:32:47;9.03;;;1.20;;
20559;SDS011;10438;51.454;6.718;2022-12-29T10:35:32;8.37;;;1.20;;
20559;SDS011;10438;51.454;6.718;2022-12-29T10:38:10;7.13;;;1.10;;
20559;SDS011;10438;51.454;6.718;2022-12-29T10:40:48;10.07;;;1.30;;
20559;SDS011;10438;51.454;6.718;2022-12-29T10:46:19;10.80;;;1.33;;
20559;SDS011;10438;51.454;6.718;2022-12-29T10:48:52;9.70;;;1.37;;
20559;SDS011;10438;51.454;6.718;2022-12-29T10:51:22;13.70;;;1.40;;
20559;SDS011;10438;51.454;6.718;2022-12-29T10:53:59;9.93;;;1.33;;
20559;SDS011;10438;51.454;6.718;2022-12-29T10:56:33;6.40;;;1.30;;
20559;SDS011;10438;51.454;6.718;2022-12-29T11:07:02;8.90;;;1.70;;
20559;SDS011;10438;51.454;6.718;2022-12-29T11:09:30;10.10;;;1.60;;
20559;SDS011;10438;51.454;6.718;2022-12-29T11:11:57;9.37;;;1.37;;
20559;SDS011;10438;51.454;6.718;2022-12-29T11:14:30;7.80;;;1.50;;
20559;SDS011;10438;51.454;6.718;2022-12-29T11:16:57;11.80;;;1.40;;
20559;SDS011;10438;51.454;6.718;2022-12-29T11:19:25;6.30;;;1.27;;
20559;SDS011;10438;51.454;6.718;2022-12-29T11:21:52;5.77;;;1.10;;
20559;SDS011;10438;51.454;6.718;2022-12-29T11:24:28;5.80;;;1.00;;
20559;SDS011;10438;51.454;6.718;2022-12-29T11:26:55;11.67;;;1.50;;
20559;SDS011;10438;51.454;6.718;2022-12-29T11:29:42;11.97;;;1.60;;
20559;SDS011;10438;51.454;6.718;2022-12-29T11:32:19;10.70;;;1.33;;
20559;SDS011;10438;51.454;6.718;2022-12-29T11:34:49;13.47;;;1.67;;
20559;SDS011;10438;51.454;6.718;2022-12-29T11:37:22;8.27;;;1.57;;
20559;SDS011;10438;51.454;6.718;2022-12-29T11:42:46;8.67;;;1.00;;
20559;SDS011;10438;51.454;6.718;2022-12-29T11:47:48;8.40;;;1.30;;
20559;SDS011;10438;51.454;6.718;2022-12-29T11:50:24;8.13;;;1.37;;
20559;SDS011;10438;51.454;6.718;2022-12-29T11:52:57;9.40;;;2.13;;
20559;SDS011;10438;51.454;6.718;2022-12-29T11:55:27;12.37;;;2.37;;
20559;SDS011;10438;51.454;6.718;2022-12-29T11:57:54;11.77;;;1.20;;
20559;SDS011;10438;51.454;6.718;2022-12-29T12:00:22;9.03;;;1.30;;
20559;SDS011;10438;51.454;6.718;2022-12-29T12:02:58;9.90;;;1.60;;
20559;SDS011;10438;51.454;6.718;2022-12-29T12:05:46;8.77;;;1.60;;
20559;SDS011;10438;51.454;6.718;2022-12-29T12:11:04;6.20;;;1.20;;
20559;SDS011;10438;51.454;6.718;2022-12-29T12:14:02;10.90;;;1.87;;
20559;SDS011;10438;51.454;6.718;2022-12-29T12:16:39;12.43;;;1.50;;
20559;SDS011;10438;51.454;6.718;2022-12-29T12:30:36;10.73;;;1.70;;
20559;SDS011;10438;51.454;6.718;2022-12-29T12:33:24;10.37;;;1.70;;
20559;SDS011;10438;51.454;6.718;2022-12-29T12:44:04;8.40;;;1.20;;
20559;SDS011;10438;51.454;6.718;2022-12-29T12:46:44;10.73;;;1.53;;
20559;SDS011;10438;51.454;6.718;2022-12-29T12:49:26;9.20;;;1.30;;
20559;SDS011;10438;51.454;6.718;2022-12-29T12:52:02;7.03;;;1.30;;
20559;SDS011;10438;51.454;6.718;2022-12-29T12:54:58;12.23;;;1.40;;
20559;SDS011;10438;51.454;6.718;2022-12-29T13:00:33;11.23;;;1.43;;
20559;SDS011;10438;51.454;6.718;2022-12-29T13:06:14;8.03;;;1.53;;
20559;SDS011;10438;51.454;6.718;2022-12-29T13:14:23;8.27;;;1.53;;
20559;SDS011;10438;51.454;6.718;2022-12-29T13:17:16;8.30;;;1.37;;
20559;SDS011;10438;51.454;6.718;2022-12-29T13:20:06;6.13;;;1.07;;
20559;SDS011;10438;51.454;6.718;2022-12-29T13:22:57;9.23;;;1.40;;
20559;SDS011;10438;51.454;6.718;2022-12-29T13:25:39;9.77;;;1.17;;
20559;SDS011;10438;51.454;6.718;2022-12-29T13:28:25;10.80;;;1.27;;
20559;SDS011;10438;51.454;6.718;2022-12-29T13:36:58;6.33;;;1.20;;
20559;SDS011;10438;51.454;6.718;2022-12-29T13:39:28;5.70;;;1.53;;
20559;SDS011;10438;51.454;6.718;2022-12-29T13:41:59;6.23;;;1.00;;
20559;SDS011;10438;51.454;6.718;2022-12-29T13:44:28;8.30;;;1.13;;
20559;SDS011;10438;51.454;6.718;2022-12-29T13:46:55;8.70;;;1.50;;
20559;SDS011;10438;51.454;6.718;2022-12-29T13:49:24;5.60;;;1.27;;
20559;SDS011;10438;51.454;6.718;2022-12-29T13:51:55;7.77;;;1.30;;
20559;SDS011;10438;51.454;6.718;2022-12-29T13:54:46;9.30;;;1.40;;
20559;SDS011;10438;51.454;6.718;2022-12-29T13:57:47;10.57;;;1.37;;
20559;SDS011;10438;51.454;6.718;2022-12-29T14:00:20;9.33;;;1.23;;
20559;SDS011;10438;51.454;6.718;2022-12-29T14:03:33;8.80;;;1.70;;
20559;SDS011;10438;51.454;6.718;2022-12-29T14:06:02;8.20;;;1.37;;
20559;SDS011;10438;51.454;6.718;2022-12-29T14:08:49;11.67;;;2.17;;
20559;SDS011;10438;51.454;6.718;2022-12-29T14:11:17;10.33;;;1.33;;
20559;SDS011;10438;51.454;6.718;2022-12-29T14:13:47;10.03;;;1.83;;
20559;SDS011;10438;51.454;6.718;2022-12-29T14:16:26;11.37;;;2.17;;
20559;SDS011;10438;51.454;6.718;2022-12-29T14:18:54;7.90;;;1.60;;
20559;SDS011;10438;51.454;6.718;2022-12-29T14:21:22;9.40;;;1.70;;
20559;SDS011;10438;51.454;6.718;2022-12-29T14:23:57;9.10;;;1.40;;
20559;SDS011;10438;51.454;6.718;2022-12-29T14:26:44;5.50;;;1.10;;
20559;SDS011;10438;51.454;6.718;2022-12-29T14:31:53;9.67;;;1.60;;
20559;SDS011;10438;51.454;6.718;2022-12-29T14:36:55;5.90;;;1.47;;
20559;SDS011;10438;51.454;6.718;2022-12-29T14:39:31;9.30;;;1.30;;
20559;SDS011;10438;51.454;6.718;2022-12-29T14:44:32;8.63;;;1.40;;
20559;SDS011;10438;51.454;6.718;2022-12-29T14:46:59;8.57;;;1.43;;
20559;SDS011;10438;51.454;6.718;2022-12-29T14:49:32;12.80;;;2.10;;
20559;SDS011;10438;51.454;6.718;2022-12-29T14:52:21;8.47;;;1.37;;
20559;SDS011;10438;51.454;6.718;2022-12-29T14:54:53;10.03;;;1.93;;
20559;SDS011;10438;51.454;6.718;2022-12-29T14:57:29;5.43;;;1.50;;
20559;SDS011;10438;51.454;6.718;2022-12-29T15:02:38;9.70;;;1.37;;
20559;SDS011;10438;51.454;6.718;2022-12-29T15:05:20;9.13;;;1.10;;
20559;SDS011;10438;51.454;6.718;2022-12-29T15:07:51;12.80;;;1.60;;
20559;SDS011;10438;51.454;6.718;2022-12-29T15:10:18;9.17;;;1.20;;
20559;SDS011;10438;51.454;6.718;2022-12-29T15:12:49;8.00;;;1.20;;
20559;SDS011;10438;51.454;6.718;2022-12-29T15:17:43;7.63;;;1.27;;
20559;SDS011;10438;51.454;6.718;2022-12-29T15:20:26;9.23;;;1.40;;
20559;SDS011;10438;51.454;6.718;2022-12-29T15:23:03;10.13;;;1.20;;
20559;SDS011;10438;51.454;6.718;2022-12-29T15:25:35;7.53;;;1.37;;
20559;SDS011;10438;51.454;6.718;2022-12-29T15:28:05;7.73;;;1.43;;
20559;SDS011;10438;51.454;6.718;2022-12-29T15:30:32;6.53;;;1.33;;
20559;SDS011;10438;51.454;6.718;2022-12-29T15:32:59;7.73;;;1.40;;
20559;SDS011;10438;51.454;6.718;2022-12-29T15:35:35;11.93;;;1.83;;
20559;SDS011;10438;51.454;6.718;2022-12-29T15:38:21;8.30;;;1.23;;
20559;SDS011;10438;51.454;6.718;2022-12-29T15:46:32;7.87;;;1.50;;
20559;SDS011;10438;51.454;6.718;2022-12-29T15:48:58;9.70;;;1.13;;
20559;SDS011;10438;51.454;6.718;2022-12-29T15:51:30;7.87;;;1.20;;
20559;SDS011;10438;51.454;6.718;2022-12-29T15:54:02;6.90;;;1.30;;
20559;SDS011;10438;51.454;6.718;2022-12-29T15:56:29;6.90;;;1.40;;
20559;SDS011;10438;51.454;6.718;2022-12-29T15:58:56;8.60;;;0.97;;
20559;SDS011;10438;51.454;6.718;2022-12-29T16:03:50;6.27;;;1.50;;
20559;SDS011;10438;51.454;6.718;2022-12-29T16:06:36;10.87;;;1.50;;
20559;SDS011;10438;51.454;6.718;2022-12-29T16:09:06;6.67;;;1.30;;
20559;SDS011;10438;51.454;6.718;2022-12-29T16:11:40;6.70;;;1.30;;
20559;SDS011;10438;51.454;6.718;2022-12-29T16:14:17;8.97;;;1.53;;
20559;SDS011;10438;51.454;6.718;2022-12-29T16:16:53;9.00;;;1.40;;
20559;SDS011;10438;51.454;6.718;2022-12-29T16:19:25;4.93;;;1.03;;
20559;SDS011;10438;51.454;6.718;2022-12-29T16:21:58;5.50;;;1.50;;
20559;SDS011;10438;51.454;6.718;2022-12-29T16:24:26;4.87;;;1.17;;
20559;SDS011;10438;51.454;6.718;2022-12-29T16:27:02;5.97;;;1.30;;
20559;SDS011;10438;51.454;6.718;2022-12-29T16:29:34;7.13;;;1.23;;
20559;SDS011;10438;51.454;6.718;2022-12-29T16:32:00;9.90;;;1.57;;
20559;SDS011;10438;51.454;6.718;2022-12-29T16:39:46;9.23;;;1.70;;
20559;SDS011;10438;51.454;6.718;2022-12-29T16:46:01;11.00;;;1.90;;
20559;SDS011;10438;51.454;6.718;2022-12-29T16:50:50;6.93;;;1.50;;
20559;SDS011;10438;51.454;6.718;2022-12-29T16:53:26;6.63;;;1.13;;
20559;SDS011;10438;51.454;6.718;2022-12-29T16:55:54;6.10;;;1.23;;
20559;SDS011;10438;51.454;6.718;2022-12-29T16:58:23;4.60;;;0.90;;
20559;SDS011;10438;51.454;6.718;2022-12-29T17:00:52;4.93;;;0.70;;
20559;SDS011;10438;51.454;6.718;2022-12-29T17:03:20;4.50;;;0.80;;
20559;SDS011;10438;51.454;6.718;2022-12-29T17:05:46;4.97;;;0.87;;
20559;SDS011;10438;51.454;6.718;2022-12-29T17:08:18;6.80;;;1.00;;
20559;SDS011;10438;51.454;6.718;2022-12-29T17:10:48;3.70;;;0.50;;
20559;SDS011;10438;51.454;6.718;2022-12-29T17:13:33;3.50;;;0.57;;
20559;SDS011;10438;51.454;6.718;2022-12-29T17:15:59;4.03;;;0.80;;
20559;SDS011;10438;51.454;6.718;2022-12-29T17:18:25;3.20;;;0.70;;
20559;SDS011;10438;51.454;6.718;2022-12-29T17:20:51;4.90;;;0.70;;
20559;SDS011;10438;51.454;6.718;2022-12-29T17:23:16;6.83;;;0.60;;
20559;SDS011;10438;51.454;6.718;2022-12-29T17:25:42;4.00;;;0.80;;